createdAt,value
2017-10-14T00:02:17.739Z,12.87
2017-10-14T00:04:46.408Z,14.50
2017-10-14T00:07:15.026Z,14.93
2017-10-14T00:09:43.681Z,14.10
2017-10-14T00:12:12.212Z,14.40
2017-10-14T00:14:40.830Z,15.63
2017-10-14T00:17:09.462Z,15.30
2017-10-14T00:19:38.126Z,15.50
2017-10-14T00:22:06.780Z,17.00
2017-10-14T00:24:35.400Z,16.37
2017-10-14T00:27:04.092Z,15.97
2017-10-14T00:29:32.707Z,18.17
2017-10-14T00:32:01.415Z,17.67
2017-10-14T00:34:30.055Z,16.87
2017-10-14T00:36:58.699Z,17.70
2017-10-14T00:39:27.384Z,17.83
2017-10-14T00:41:55.998Z,17.87
2017-10-14T00:44:24.631Z,18.30
2017-10-14T00:46:53.316Z,18.00
2017-10-14T00:49:21.956Z,18.63
2017-10-14T00:51:50.595Z,18.10
2017-10-14T00:54:19.303Z,18.40
2017-10-14T00:56:47.623Z,20.23
2017-10-14T00:59:16.003Z,19.50
2017-10-14T01:01:44.626Z,20.20
2017-10-14T01:04:13.285Z,21.20
2017-10-14T01:06:41.390Z,18.47
2017-10-14T01:09:10.087Z,20.10
2017-10-14T01:11:38.764Z,20.40
2017-10-14T01:14:07.394Z,21.10
2017-10-14T01:16:36.086Z,20.70
2017-10-14T01:19:04.727Z,20.87
2017-10-14T01:21:33.399Z,21.90
2017-10-14T01:24:01.751Z,20.00
2017-10-14T01:26:40.242Z,20.50
2017-10-14T01:29:08.454Z,21.27
2017-10-14T01:31:37.126Z,20.30
2017-10-14T01:34:05.438Z,21.80
2017-10-14T01:36:33.810Z,22.53
2017-10-14T01:39:02.539Z,22.40
2017-10-14T01:41:31.196Z,19.77
2017-10-14T01:43:59.890Z,19.47
2017-10-14T01:46:28.198Z,20.63
2017-10-14T01:48:56.888Z,21.63
2017-10-14T01:51:25.206Z,21.03
2017-10-14T01:53:53.567Z,20.33
2017-10-14T01:56:21.913Z,21.20
2017-10-14T01:58:50.619Z,20.40
2017-10-14T02:01:19.240Z,20.20
2017-10-14T02:03:47.858Z,20.73
2017-10-14T02:06:16.520Z,20.50
2017-10-14T02:08:45.222Z,19.47
2017-10-14T02:11:13.908Z,19.47
2017-10-14T02:13:42.534Z,19.27
2017-10-14T02:16:11.237Z,18.80
2017-10-14T02:18:39.876Z,20.60
2017-10-14T02:21:08.627Z,18.27
2017-10-14T02:23:37.267Z,17.70
2017-10-14T02:26:05.887Z,20.33
2017-10-14T02:28:34.565Z,19.10
2017-10-14T02:31:03.241Z,16.90
2017-10-14T02:33:31.912Z,17.53
2017-10-14T02:36:00.626Z,18.27
2017-10-14T02:38:29.254Z,18.93
2017-10-14T02:40:57.870Z,18.93
2017-10-14T02:43:26.556Z,17.10
2017-10-14T02:45:55.205Z,16.23
2017-10-14T02:48:23.831Z,16.37
2017-10-14T02:50:52.489Z,18.07
2017-10-14T02:53:21.113Z,18.73
2017-10-14T02:55:49.760Z,18.33
2017-10-14T02:58:18.455Z,17.70
2017-10-14T03:00:47.086Z,17.43
2017-10-14T03:03:15.782Z,16.57
2017-10-14T03:05:44.408Z,17.17
2017-10-14T03:08:13.050Z,18.07
2017-10-14T03:10:41.705Z,17.93
2017-10-14T03:13:10.309Z,18.33
2017-10-14T03:15:38.981Z,17.00
2017-10-14T03:18:07.682Z,19.93
2017-10-14T03:20:36.350Z,17.13
2017-10-14T03:23:04.965Z,16.30
2017-10-14T03:25:33.663Z,16.77
2017-10-14T03:28:02.322Z,17.20
2017-10-14T03:30:30.998Z,16.87
2017-10-14T03:33:01.340Z,15.73
2017-10-14T03:35:30.016Z,16.00
2017-10-14T03:37:58.634Z,16.50
2017-10-14T03:40:27.307Z,17.10
2017-10-14T03:42:55.927Z,16.63
2017-10-14T03:45:24.598Z,16.40
2017-10-14T03:47:53.214Z,15.70
2017-10-14T03:50:21.833Z,16.57
2017-10-14T03:52:50.495Z,15.97
2017-10-14T03:55:19.122Z,16.40
2017-10-14T03:57:47.791Z,17.30
2017-10-14T04:00:16.523Z,17.63
2017-10-14T04:02:45.150Z,16.80
2017-10-14T04:05:13.770Z,16.00
2017-10-14T04:07:42.526Z,15.93
2017-10-14T04:10:11.173Z,14.93
2017-10-14T04:12:39.835Z,16.90
2017-10-14T04:15:08.486Z,15.90
2017-10-14T04:17:38.531Z,15.10
2017-10-14T04:20:07.216Z,15.97
2017-10-14T04:22:35.895Z,14.67
2017-10-14T04:25:04.510Z,15.60
2017-10-14T04:27:37.306Z,15.47
2017-10-14T04:30:05.929Z,16.50
2017-10-14T04:32:34.552Z,15.60
2017-10-14T04:35:03.214Z,16.40
2017-10-14T04:37:35.752Z,17.00
2017-10-14T04:40:04.423Z,16.87
2017-10-14T04:42:33.110Z,15.50
2017-10-14T04:45:01.763Z,15.83
2017-10-14T04:47:30.422Z,16.90
2017-10-14T04:49:59.048Z,16.43
2017-10-14T04:52:27.708Z,17.47
2017-10-14T04:54:56.346Z,15.47
2017-10-14T04:57:25.028Z,16.50
2017-10-14T05:00:10.008Z,16.67
2017-10-14T05:02:39.538Z,17.37
2017-10-14T05:05:08.187Z,17.67
2017-10-14T05:07:38.446Z,16.97
2017-10-14T05:10:07.192Z,16.40
2017-10-14T05:12:35.821Z,15.67
2017-10-14T05:15:04.302Z,15.60
2017-10-14T05:17:40.068Z,16.03
2017-10-14T05:20:08.723Z,14.37
2017-10-14T05:22:37.243Z,15.97
2017-10-14T05:25:05.862Z,15.80
2017-10-14T05:27:37.869Z,15.43
2017-10-14T05:30:06.552Z,15.93
2017-10-14T05:32:35.087Z,17.30
2017-10-14T05:35:03.562Z,15.57
2017-10-14T05:37:35.195Z,16.70
2017-10-14T05:40:03.656Z,17.70
2017-10-14T05:42:32.318Z,17.30
2017-10-14T05:45:00.946Z,16.40
2017-10-14T05:47:29.598Z,15.10
2017-10-14T05:49:58.211Z,16.83
2017-10-14T05:52:26.879Z,16.83
2017-10-14T05:54:55.511Z,16.20
2017-10-14T05:57:24.170Z,16.50
2017-10-14T05:59:52.883Z,15.73
2017-10-14T06:02:21.507Z,18.40
2017-10-14T06:04:50.183Z,16.60
2017-10-14T06:07:18.799Z,17.00
2017-10-14T06:09:47.467Z,18.00
2017-10-14T06:12:16.094Z,16.93
2017-10-14T06:14:44.759Z,17.00
2017-10-14T06:17:13.402Z,16.70
2017-10-14T06:19:42.072Z,16.60
2017-10-14T06:22:10.726Z,17.27
2017-10-14T06:24:39.357Z,17.03
2017-10-14T06:27:08.029Z,17.30
2017-10-14T06:29:36.647Z,15.80
2017-10-14T06:32:05.279Z,16.60
2017-10-14T06:34:33.943Z,16.63
2017-10-14T06:37:02.576Z,17.93
2017-10-14T06:39:31.256Z,17.37
2017-10-14T06:41:59.926Z,17.70
2017-10-14T06:44:28.470Z,16.90
2017-10-14T06:46:57.095Z,17.60
2017-10-14T06:49:25.726Z,16.40
2017-10-14T06:51:54.428Z,16.60
2017-10-14T06:54:23.110Z,16.80
2017-10-14T06:56:51.774Z,17.00
2017-10-14T06:59:20.421Z,15.27
2017-10-14T07:01:49.083Z,16.60
2017-10-14T07:04:17.739Z,18.70
2017-10-14T07:06:46.382Z,16.37
2017-10-14T07:09:15.057Z,16.20
2017-10-14T07:11:43.684Z,15.50
2017-10-14T07:14:12.374Z,14.70
2017-10-14T07:16:41.041Z,17.90
2017-10-14T07:19:09.678Z,15.50
2017-10-14T07:21:38.346Z,14.97
2017-10-14T07:24:06.963Z,15.80
2017-10-14T07:26:35.627Z,14.57
2017-10-14T07:29:04.246Z,15.80
2017-10-14T07:31:32.899Z,15.70
2017-10-14T07:34:01.513Z,17.30
2017-10-14T07:36:30.183Z,13.50
2017-10-14T07:38:58.861Z,14.70
2017-10-14T07:41:27.561Z,13.80
2017-10-14T07:43:56.182Z,13.50
2017-10-14T07:46:24.852Z,14.03
2017-10-14T07:48:53.479Z,14.20
2017-10-14T07:51:22.164Z,14.00
2017-10-14T07:53:50.785Z,14.63
2017-10-14T07:56:19.402Z,13.47
2017-10-14T07:58:48.082Z,14.33
2017-10-14T08:01:16.555Z,14.40
2017-10-14T08:03:45.034Z,13.43
2017-10-14T08:06:13.709Z,12.67
2017-10-14T08:08:42.326Z,15.10
2017-10-14T08:11:10.836Z,14.87
2017-10-14T08:13:39.443Z,14.70
2017-10-14T08:16:08.108Z,14.47
2017-10-14T08:18:36.742Z,14.07
2017-10-14T08:21:05.435Z,14.67
2017-10-14T08:23:34.039Z,14.97
2017-10-14T08:26:02.728Z,14.57
2017-10-14T08:28:31.200Z,12.87
2017-10-14T08:31:00.001Z,14.17
2017-10-14T08:33:28.634Z,12.93
2017-10-14T08:36:11.800Z,12.20
2017-10-14T08:38:41.283Z,12.57
2017-10-14T08:41:09.989Z,12.20
2017-10-14T08:43:38.665Z,13.63
2017-10-14T08:46:07.298Z,13.40
2017-10-14T08:48:35.948Z,12.37
2017-10-14T08:51:04.632Z,11.37
2017-10-14T08:53:33.265Z,11.60
2017-10-14T08:56:01.935Z,11.93
2017-10-14T08:58:30.546Z,11.40
2017-10-14T09:00:59.230Z,11.20
2017-10-14T09:03:27.744Z,12.07
2017-10-14T09:05:56.362Z,12.37
2017-10-14T09:08:25.031Z,13.17
2017-10-14T09:10:53.645Z,12.87
2017-10-14T09:13:22.318Z,12.20
2017-10-14T09:15:50.938Z,13.50
2017-10-14T09:18:19.608Z,13.23
2017-10-14T09:20:48.307Z,12.17
2017-10-14T09:23:16.958Z,12.50
2017-10-14T09:25:45.471Z,13.23
2017-10-14T09:28:14.005Z,13.70
2017-10-14T09:30:42.684Z,14.83
2017-10-14T09:33:11.336Z,13.90
2017-10-14T09:35:39.975Z,13.67
2017-10-14T09:38:08.671Z,13.13
2017-10-14T09:40:37.196Z,13.30
2017-10-14T09:43:05.906Z,12.53
2017-10-14T09:45:34.524Z,13.20
2017-10-14T09:48:03.183Z,14.13
2017-10-14T09:50:31.794Z,13.60
2017-10-14T09:53:00.454Z,13.00
2017-10-14T09:55:29.107Z,12.40
2017-10-14T09:57:57.745Z,13.80
2017-10-14T10:00:26.414Z,12.30
2017-10-14T10:02:55.037Z,11.70
2017-10-14T10:05:23.662Z,12.87
2017-10-14T10:07:52.328Z,12.90
2017-10-14T10:10:20.938Z,11.50
2017-10-14T10:12:49.593Z,12.50
2017-10-14T10:15:18.222Z,12.37
2017-10-14T10:17:46.883Z,12.13
2017-10-14T10:20:15.515Z,11.73
2017-10-14T10:22:44.176Z,11.87
2017-10-14T10:25:12.851Z,11.07
2017-10-14T10:27:41.540Z,12.03
2017-10-14T10:30:10.171Z,12.13
2017-10-14T10:32:38.697Z,11.57
2017-10-14T10:35:07.324Z,11.00
2017-10-14T10:37:36.207Z,13.60
2017-10-14T10:40:04.864Z,12.23
2017-10-14T10:42:33.527Z,11.90
2017-10-14T10:45:02.147Z,12.27
2017-10-14T10:47:35.380Z,11.93
2017-10-14T10:50:04.007Z,11.20
2017-10-14T10:52:32.676Z,13.23
2017-10-14T10:55:01.298Z,12.50
2017-10-14T10:57:31.540Z,11.93
2017-10-14T11:00:00.255Z,13.00
2017-10-14T11:02:28.879Z,12.60
2017-10-14T11:04:57.558Z,12.90
2017-10-14T11:07:26.187Z,13.13
2017-10-14T11:09:54.843Z,11.77
2017-10-14T11:12:23.479Z,11.97
2017-10-14T11:14:52.163Z,11.70
2017-10-14T11:17:20.815Z,11.50
2017-10-14T11:19:49.474Z,11.37
2017-10-14T11:22:18.094Z,11.90
2017-10-14T11:24:46.716Z,12.70
2017-10-14T11:27:15.374Z,12.30
2017-10-14T11:29:43.979Z,11.20
2017-10-14T11:32:12.667Z,12.20
2017-10-14T11:34:41.291Z,12.10
2017-10-14T11:37:09.926Z,12.50
2017-10-14T11:39:38.615Z,11.70
2017-10-14T11:42:07.226Z,11.83
2017-10-14T11:44:35.892Z,11.20
2017-10-14T11:47:04.526Z,12.10
2017-10-14T11:49:33.211Z,12.67
2017-10-14T11:52:01.959Z,12.23
2017-10-14T11:54:30.579Z,12.40
2017-10-14T11:56:59.247Z,11.90
2017-10-14T11:59:27.871Z,12.77
2017-10-14T12:01:56.534Z,12.30
2017-10-14T12:04:25.179Z,12.70
2017-10-14T12:06:53.847Z,13.63
2017-10-14T12:09:22.524Z,14.20
2017-10-14T12:11:53.877Z,15.50
2017-10-14T12:14:22.498Z,20.33
2017-10-14T12:16:51.133Z,23.67
2017-10-14T12:19:19.802Z,19.93
2017-10-14T12:21:48.421Z,20.37
2017-10-14T12:24:17.034Z,17.90
2017-10-14T12:26:45.703Z,19.70
2017-10-14T12:29:14.374Z,18.43
2017-10-14T12:31:43.017Z,19.17
2017-10-14T12:34:11.679Z,18.67
2017-10-14T12:36:40.355Z,18.30
2017-10-14T12:39:09.006Z,17.90
2017-10-14T12:41:37.691Z,19.23
2017-10-14T12:44:06.326Z,19.87
2017-10-14T12:46:34.983Z,21.37
2017-10-14T12:49:03.652Z,19.70
2017-10-14T12:51:32.288Z,20.73
2017-10-14T12:54:00.954Z,21.27
2017-10-14T12:56:29.592Z,21.53
2017-10-14T12:58:58.265Z,20.87
2017-10-14T13:01:26.902Z,21.60
2017-10-14T13:03:55.579Z,20.17
2017-10-14T13:06:24.198Z,20.70
2017-10-14T13:08:52.871Z,20.97
2017-10-14T13:11:21.526Z,20.33
2017-10-14T13:13:50.167Z,20.10
2017-10-14T13:16:18.793Z,20.77
2017-10-14T13:18:47.471Z,21.13
2017-10-14T13:21:16.104Z,21.20
2017-10-14T13:23:44.758Z,21.83
2017-10-14T13:26:13.371Z,21.03
2017-10-14T13:28:42.022Z,22.23
2017-10-14T13:31:10.651Z,22.13
2017-10-14T13:33:39.274Z,21.43
2017-10-14T13:36:07.929Z,22.57
2017-10-14T13:38:36.558Z,22.90
2017-10-14T13:41:05.179Z,22.20
2017-10-14T13:43:33.839Z,22.80
2017-10-14T13:46:02.465Z,23.00
2017-10-14T13:48:31.163Z,21.53
2017-10-14T13:50:59.786Z,22.77
2017-10-14T13:53:28.458Z,24.77
2017-10-14T13:55:57.083Z,24.40
2017-10-14T13:58:25.714Z,22.87
2017-10-14T14:00:54.383Z,24.10
2017-10-14T14:03:23.004Z,24.27
2017-10-14T14:05:51.684Z,26.00
2017-10-14T14:08:20.310Z,24.73
2017-10-14T14:10:48.934Z,26.50
2017-10-14T14:13:17.592Z,23.10
2017-10-14T14:15:46.219Z,28.87
2017-10-14T14:18:14.889Z,29.50
2017-10-14T14:20:43.575Z,26.80
2017-10-14T14:23:12.236Z,26.77
2017-10-14T14:25:40.722Z,24.97
2017-10-14T14:28:09.267Z,26.57
2017-10-14T14:30:37.766Z,25.50
2017-10-14T14:33:06.281Z,24.50
2017-10-14T14:35:34.987Z,25.43
2017-10-14T14:38:03.510Z,25.47
2017-10-14T14:40:31.995Z,24.50
2017-10-14T14:43:00.466Z,27.30
2017-10-14T14:45:29.121Z,27.67
2017-10-14T14:47:57.754Z,27.00
2017-10-14T14:50:26.415Z,26.47
2017-10-14T14:52:55.031Z,28.63
2017-10-14T14:55:23.686Z,28.23
2017-10-14T14:57:52.366Z,28.83
2017-10-14T15:00:21.014Z,29.10
2017-10-14T15:02:49.639Z,34.87
2017-10-14T15:05:18.294Z,32.10
2017-10-14T15:07:46.921Z,31.53
2017-10-14T15:10:15.591Z,32.97
2017-10-14T15:12:44.232Z,29.97
2017-10-14T15:15:12.879Z,31.33
2017-10-14T15:17:41.505Z,30.10
2017-10-14T15:20:10.169Z,29.73
2017-10-14T15:22:38.804Z,28.77
2017-10-14T15:25:07.458Z,28.20
2017-10-14T15:27:36.424Z,30.17
2017-10-14T15:30:05.119Z,29.13
2017-10-14T15:32:33.739Z,28.00
2017-10-14T15:35:02.261Z,28.10
2017-10-14T15:37:32.541Z,27.83
2017-10-14T15:40:01.212Z,27.30
2017-10-14T15:42:29.914Z,25.70
2017-10-14T15:44:58.546Z,23.90
2017-10-14T15:47:27.199Z,23.70
2017-10-14T15:49:55.883Z,22.60
2017-10-14T15:52:24.498Z,23.17
2017-10-14T15:54:53.157Z,21.77
2017-10-14T15:57:21.630Z,19.87
2017-10-14T15:59:50.298Z,21.90
2017-10-14T16:02:18.926Z,19.77
2017-10-14T16:04:47.603Z,20.17
2017-10-14T16:07:16.214Z,21.93
2017-10-14T16:09:44.867Z,19.50
2017-10-14T16:12:13.482Z,20.43
2017-10-14T16:14:42.147Z,20.20
2017-10-14T16:17:10.762Z,23.77
2017-10-14T16:19:39.423Z,21.17
2017-10-14T16:22:08.086Z,23.20
2017-10-14T16:24:36.698Z,23.70
2017-10-14T16:27:05.354Z,22.20
2017-10-14T16:29:33.855Z,19.80
2017-10-14T16:32:02.475Z,21.93
2017-10-14T16:34:31.134Z,20.83
2017-10-14T16:36:59.764Z,21.23
2017-10-14T16:39:28.376Z,22.70
2017-10-14T16:41:57.058Z,20.23
2017-10-14T16:44:25.678Z,17.97
2017-10-14T16:46:54.294Z,18.87
2017-10-14T16:49:22.953Z,18.90
2017-10-14T16:51:51.611Z,18.37
2017-10-14T16:54:20.311Z,17.47
2017-10-14T16:56:48.946Z,18.17
2017-10-14T16:59:17.584Z,17.53
2017-10-14T17:01:46.249Z,17.37
2017-10-14T17:04:14.888Z,17.20
2017-10-14T17:06:43.574Z,18.30
2017-10-14T17:09:12.198Z,16.60
2017-10-14T17:11:40.858Z,18.53
2017-10-14T17:14:09.531Z,17.97
2017-10-14T17:16:38.159Z,17.03
2017-10-14T17:19:06.829Z,17.03
2017-10-14T17:21:35.528Z,19.03
2017-10-14T17:24:04.194Z,22.03
2017-10-14T17:26:32.809Z,20.17
2017-10-14T17:29:01.494Z,17.67
2017-10-14T17:31:30.109Z,19.27
2017-10-14T17:33:58.806Z,17.63
2017-10-14T17:36:34.127Z,17.23
2017-10-14T17:39:02.811Z,16.40
2017-10-14T17:41:31.419Z,17.67
2017-10-14T17:44:00.045Z,17.00
2017-10-14T17:46:28.714Z,16.23
2017-10-14T17:48:57.384Z,15.87
2017-10-14T17:51:26.011Z,17.00
2017-10-14T17:53:54.617Z,16.10
2017-10-14T17:56:23.285Z,16.40
2017-10-14T17:58:51.902Z,14.13
2017-10-14T18:01:20.563Z,14.30
2017-10-14T18:03:49.238Z,14.80
2017-10-14T18:06:17.854Z,14.77
2017-10-14T18:08:46.517Z,14.60
2017-10-14T18:11:15.242Z,15.40
2017-10-14T18:13:43.880Z,13.93
2017-10-14T18:16:12.558Z,14.80
2017-10-14T18:18:41.177Z,13.50
2017-10-14T18:21:09.862Z,14.80
2017-10-14T18:23:38.539Z,14.17
2017-10-14T18:26:07.164Z,13.37
2017-10-14T18:28:35.827Z,15.10
2017-10-14T18:31:04.449Z,13.30
2017-10-14T18:33:33.091Z,14.70
2017-10-14T18:36:01.787Z,15.93
2017-10-14T18:38:30.418Z,14.00
2017-10-14T18:40:59.043Z,15.17
2017-10-14T18:43:27.699Z,14.30
2017-10-14T18:45:56.313Z,15.13
2017-10-14T18:48:24.991Z,15.00
2017-10-14T18:50:53.703Z,14.80
2017-10-14T18:53:22.326Z,14.00
2017-10-14T18:55:50.997Z,14.90
2017-10-14T18:58:19.650Z,14.13
2017-10-14T19:00:48.314Z,13.27
2017-10-14T19:03:16.935Z,13.40
2017-10-14T19:05:45.546Z,13.33
2017-10-14T19:08:14.228Z,12.80
2017-10-14T19:10:42.871Z,12.90
2017-10-14T19:13:11.534Z,11.90
2017-10-14T19:15:40.196Z,12.90
2017-10-14T19:18:08.830Z,13.10
2017-10-14T19:20:37.512Z,11.60
2017-10-14T19:23:06.211Z,13.17
2017-10-14T19:25:34.826Z,13.63
2017-10-14T19:28:03.342Z,12.20
2017-10-14T19:30:32.024Z,12.43
2017-10-14T19:33:00.640Z,11.63
2017-10-14T19:35:29.256Z,12.20
2017-10-14T19:37:57.932Z,11.33
2017-10-14T19:40:26.605Z,12.10
2017-10-14T19:42:55.218Z,12.80
2017-10-14T19:45:23.907Z,12.00
2017-10-14T19:47:52.524Z,11.50
2017-10-14T19:50:21.214Z,11.73
2017-10-14T19:52:49.879Z,11.53
2017-10-14T19:55:18.506Z,12.33
2017-10-14T19:57:47.186Z,12.23
2017-10-14T20:00:15.810Z,11.30
2017-10-14T20:02:44.467Z,11.23
2017-10-14T20:05:13.108Z,10.80
2017-10-14T20:07:41.785Z,10.67
2017-10-14T20:10:10.410Z,10.60
2017-10-14T20:12:39.088Z,10.87
2017-10-14T20:15:07.731Z,11.20
2017-10-14T20:17:37.774Z,10.37
2017-10-14T20:20:06.391Z,11.33
2017-10-14T20:22:35.056Z,11.27
2017-10-14T20:25:03.739Z,11.33
2017-10-14T20:27:36.915Z,10.63
2017-10-14T20:30:05.432Z,10.67
2017-10-14T20:32:34.112Z,11.73
2017-10-14T20:35:02.723Z,9.57
2017-10-14T20:37:35.702Z,11.00
2017-10-14T20:40:04.375Z,10.97
2017-10-14T20:42:33.004Z,11.47
2017-10-14T20:45:01.676Z,10.60
2017-10-14T20:47:34.236Z,10.13
2017-10-14T20:50:02.916Z,10.47
2017-10-14T20:52:31.603Z,10.17
2017-10-14T20:55:00.227Z,9.30
2017-10-14T20:57:28.854Z,10.70
2017-10-14T20:59:57.523Z,9.87
2017-10-14T21:02:26.019Z,11.53
2017-10-14T21:04:54.704Z,10.23
2017-10-14T21:07:23.326Z,10.10
2017-10-14T21:09:52.178Z,10.87
2017-10-14T21:12:20.834Z,11.13
2017-10-14T21:14:49.510Z,9.77
2017-10-14T21:17:18.134Z,10.77
2017-10-14T21:19:46.831Z,9.70
2017-10-14T21:22:15.483Z,10.97
2017-10-14T21:24:44.099Z,9.63
2017-10-14T21:27:12.758Z,9.63
2017-10-14T21:29:41.384Z,10.00
2017-10-14T21:32:10.041Z,9.93
2017-10-14T21:34:38.579Z,10.43
2017-10-14T21:37:07.203Z,9.57
2017-10-14T21:39:35.805Z,9.93
2017-10-14T21:42:04.495Z,10.00
2017-10-14T21:44:33.364Z,9.43
2017-10-14T21:47:02.130Z,10.30
2017-10-14T21:49:30.754Z,10.83
2017-10-14T21:51:59.369Z,10.10
2017-10-14T21:54:28.044Z,9.67
2017-10-14T21:56:56.682Z,10.80
2017-10-14T21:59:25.338Z,11.20
2017-10-14T22:01:54.008Z,11.60
2017-10-14T22:04:22.621Z,12.17
2017-10-14T22:06:51.303Z,11.10
2017-10-14T22:09:19.951Z,11.73
2017-10-14T22:11:48.463Z,11.83
2017-10-14T22:14:17.147Z,11.30
2017-10-14T22:16:45.766Z,12.17
2017-10-14T22:19:14.463Z,11.17
2017-10-14T22:21:43.081Z,11.73
2017-10-14T22:24:11.749Z,12.00
2017-10-14T22:26:40.405Z,12.17
2017-10-14T22:29:09.037Z,11.97
2017-10-14T22:31:37.699Z,11.60
2017-10-14T22:34:06.315Z,12.30
2017-10-14T22:36:34.951Z,11.93
2017-10-14T22:39:03.647Z,12.33
2017-10-14T22:41:32.397Z,13.07
2017-10-14T22:44:01.055Z,12.50
2017-10-14T22:46:29.678Z,11.30
2017-10-14T22:48:58.336Z,13.83
2017-10-14T22:51:26.966Z,13.90
2017-10-14T22:53:55.631Z,12.20
2017-10-14T22:56:24.355Z,12.97
2017-10-14T22:58:52.983Z,12.77
2017-10-14T23:01:21.671Z,13.80
2017-10-14T23:03:50.299Z,13.13
2017-10-14T23:06:18.845Z,14.13
2017-10-14T23:08:47.471Z,14.07
2017-10-14T23:11:16.096Z,14.40
2017-10-14T23:13:44.783Z,13.97
2017-10-14T23:16:13.412Z,15.93
2017-10-14T23:18:42.061Z,16.17
2017-10-14T23:21:10.725Z,16.00
2017-10-14T23:23:39.358Z,15.50
2017-10-14T23:26:07.987Z,15.17
2017-10-14T23:28:36.655Z,15.40
2017-10-14T23:31:05.287Z,15.53
2017-10-14T23:33:33.951Z,14.30
2017-10-14T23:36:02.586Z,14.80
2017-10-14T23:38:31.211Z,14.53
2017-10-14T23:40:59.906Z,16.70
2017-10-14T23:43:28.534Z,16.77
2017-10-14T23:45:57.160Z,15.83
2017-10-14T23:48:25.838Z,17.30
2017-10-14T23:50:54.459Z,17.83
2017-10-14T23:53:23.118Z,17.90
2017-10-14T23:55:51.743Z,17.00
2017-10-14T23:58:20.357Z,17.10
